Time;durP1;ratioP1;P1;durP2;ratioP2;P2;SDS_P1;SDS_P2;PMS_P1;PMS_P2;Temp;Humidity;BMP_temperature;BMP_pressure;BME280_temperature;BME280_humidity;BME280_pressure;Samples;Min_cycle;Max_cycle;Signal;HPM_P1;HPM_P2
2021/05/28 00:01:04;;;;;;;6.55;4.07;;;22.40;45.00;;;;;;6181285;28;80863;-63
2021/05/28 00:04:04;;;;;;;7.82;4.55;;;22.50;44.40;;;;;;6183266;28;80543;-63
2021/05/28 00:07:05;;;;;;;7.53;4.45;;;22.50;44.70;;;;;;6182985;28;81423;-63
2021/05/28 00:10:05;;;;;;;8.48;4.80;;;22.50;44.70;;;;;;6183352;28;82181;-63
2021/05/28 00:13:06;;;;;;;8.10;5.00;;;22.50;45.50;;;;;;6159697;28;81772;-63
2021/05/28 00:16:07;;;;;;;8.63;4.95;;;22.50;44.80;;;;;;6155466;28;80279;-63
2021/05/28 00:19:07;;;;;;;8.30;4.85;;;22.50;44.60;;;;;;6181989;28;80362;-63
2021/05/28 00:22:08;;;;;;;10.23;5.22;;;22.40;44.80;;;;;;6159270;28;80882;-63
2021/05/28 00:25:08;;;;;;;8.93;4.75;;;22.50;45.00;;;;;;6182576;28;80517;-63
2021/05/28 00:28:09;;;;;;;9.88;4.50;;;22.50;44.90;;;;;;6157939;28;80915;-63
2021/05/28 00:31:09;;;;;;;8.20;4.55;;;22.50;45.20;;;;;;6156430;28;80223;-64
2021/05/28 00:34:10;;;;;;;8.00;4.53;;;22.40;45.10;;;;;;6162904;28;81267;-64
2021/05/28 00:37:10;;;;;;;7.00;4.18;;;22.40;45.20;;;;;;6182825;28;80471;-64
2021/05/28 00:40:11;;;;;;;10.55;5.47;;;22.40;45.50;;;;;;6182050;28;85900;-63
2021/05/28 00:43:11;;;;;;;7.57;5.30;;;22.40;44.90;;;;;;6183029;28;80392;-63
2021/05/28 00:46:12;;;;;;;8.43;4.93;;;22.50;45.20;;;;;;6182721;28;81082;-64
2021/05/28 00:49:12;;;;;;;8.35;4.60;;;22.40;45.00;;;;;;6181433;28;80298;-63
2021/05/28 00:52:13;;;;;;;8.75;4.93;;;22.40;45.10;;;;;;6178287;28;80966;-64
2021/05/28 00:55:13;;;;;;;11.30;5.28;;;22.40;45.40;;;;;;6178990;28;83177;-64
2021/05/28 00:58:14;;;;;;;7.85;4.80;;;22.40;45.30;;;;;;6166220;28;80851;-63
2021/05/28 01:01:14;;;;;;;9.65;5.20;;;22.40;45.20;;;;;;6178179;28;80235;-64
2021/05/28 01:04:15;;;;;;;11.73;4.93;;;22.40;45.10;;;;;;6181767;28;81235;-63
2021/05/28 01:07:15;;;;;;;8.60;5.05;;;22.40;45.10;;;;;;6179476;28;80480;-63
2021/05/28 01:10:16;;;;;;;10.52;5.75;;;22.40;45.00;;;;;;6182282;28;81110;-63
2021/05/28 01:13:16;;;;;;;8.05;4.85;;;22.40;44.70;;;;;;6181253;28;81076;-63
2021/05/28 01:16:17;;;;;;;7.07;4.20;;;22.40;45.10;;;;;;6158611;28;80271;-63
2021/05/28 01:19:17;;;;;;;10.77;4.90;;;22.40;45.40;;;;;;6180919;28;81521;-63
2021/05/28 01:22:19;;;;;;;9.48;5.57;;;22.40;45.20;;;;;;6179482;28;80731;-63
2021/05/28 01:25:20;;;;;;;8.80;4.97;;;22.40;44.90;;;;;;6189105;28;82213;-63
2021/05/28 01:28:20;;;;;;;8.77;4.85;;;22.40;45.00;;;;;;6181262;28;81239;-63
2021/05/28 01:31:21;;;;;;;9.13;4.78;;;22.40;44.90;;;;;;6179930;28;80391;-63
2021/05/28 01:34:21;;;;;;;9.00;4.93;;;22.40;45.50;;;;;;6172602;28;80764;-63
2021/05/28 01:37:22;;;;;;;9.70;4.75;;;22.40;44.70;;;;;;6156938;28;80527;-63
2021/05/28 01:40:23;;;;;;;7.90;5.20;;;22.40;45.00;;;;;;6179920;28;81937;-63
2021/05/28 01:43:23;;;;;;;7.68;4.57;;;22.40;45.30;;;;;;6176074;28;80406;-64
2021/05/28 01:46:24;;;;;;;8.50;5.72;;;22.40;44.80;;;;;;6181371;28;80676;-65
2021/05/28 01:49:25;;;;;;;9.13;5.13;;;22.40;45.10;;;;;;6176776;28;80729;-64
2021/05/28 01:52:25;;;;;;;7.80;4.65;;;22.40;45.00;;;;;;6155810;28;80465;-64
2021/05/28 01:55:26;;;;;;;10.65;5.30;;;22.40;45.00;;;;;;6159518;28;81385;-63
2021/05/28 01:58:26;;;;;;;9.82;5.45;;;22.40;45.20;;;;;;6170132;28;80469;-64
2021/05/28 02:01:27;;;;;;;11.45;5.82;;;22.40;44.90;;;;;;6159637;28;80739;-63
2021/05/28 02:04:27;;;;;;;8.27;4.90;;;22.40;45.30;;;;;;6181988;28;80369;-65
2021/05/28 02:07:28;;;;;;;8.57;5.05;;;22.40;45.20;;;;;;6172433;28;80599;-64
2021/05/28 02:10:29;;;;;;;8.30;4.53;;;22.40;44.80;;;;;;6159316;28;81539;-63
2021/05/28 02:13:30;;;;;;;10.27;5.47;;;22.40;44.80;;;;;;6179969;28;80474;-64
2021/05/28 02:16:30;;;;;;;9.70;4.93;;;22.30;44.90;;;;;;6177434;28;80707;-64
2021/05/28 02:19:31;;;;;;;9.50;4.82;;;22.40;45.00;;;;;;6159883;28;80427;-64
2021/05/28 02:22:31;;;;;;;8.00;4.35;;;22.30;45.00;;;;;;6177758;28;80149;-63
2021/05/28 02:25:32;;;;;;;8.48;5.38;;;22.40;44.80;;;;;;6173211;28;81809;-63
2021/05/28 02:28:32;;;;;;;10.65;4.68;;;22.40;44.80;;;;;;6157344;28;80284;-64
2021/05/28 02:31:33;;;;;;;11.57;5.13;;;22.30;44.80;;;;;;6155258;28;81126;-63
2021/05/28 02:34:33;;;;;;;8.57;4.88;;;22.30;44.90;;;;;;6156426;28;80714;-65
2021/05/28 02:37:34;;;;;;;9.43;4.82;;;22.30;45.10;;;;;;6155209;28;80469;-64
2021/05/28 02:40:34;;;;;;;8.55;4.95;;;22.30;45.00;;;;;;6166681;28;80847;-65
2021/05/28 02:43:36;;;;;;;8.32;4.75;;;22.30;44.90;;;;;;6179068;28;80470;-64
2021/05/28 02:46:37;;;;;;;6.95;4.57;;;22.30;44.70;;;;;;6175994;28;80406;-64
2021/05/28 02:49:38;;;;;;;8.55;5.10;;;22.30;44.90;;;;;;6158907;28;83426;-64
2021/05/28 02:52:38;;;;;;;8.80;4.80;;;22.30;44.80;;;;;;6178339;28;80957;-64
2021/05/28 02:55:39;;;;;;;8.23;4.50;;;22.40;44.90;;;;;;6180594;28;81379;-64
2021/05/28 02:58:40;;;;;;;9.35;5.35;;;22.30;44.80;;;;;;6172799;28;80781;-64
2021/05/28 03:01:40;;;;;;;9.18;4.93;;;22.30;44.70;;;;;;6155909;28;84343;-64
2021/05/28 03:04:41;;;;;;;8.48;4.85;;;22.30;44.80;;;;;;6155770;28;82017;-64
2021/05/28 03:07:41;;;;;;;8.23;4.38;;;22.30;44.50;;;;;;6158689;28;81751;-64
2021/05/28 03:10:42;;;;;;;8.32;5.20;;;22.30;44.50;;;;;;6179625;28;81677;-64
2021/05/28 03:13:42;;;;;;;7.63;4.50;;;22.30;44.40;;;;;;6172107;28;80748;-64
2021/05/28 03:16:43;;;;;;;11.07;5.07;;;22.30;44.80;;;;;;6154442;28;80358;-63
2021/05/28 03:19:45;;;;;;;7.60;5.00;;;22.30;45.00;;;;;;6170527;28;80478;-64
2021/05/28 03:22:45;;;;;;;8.05;4.60;;;22.30;44.60;;;;;;6158533;28;82839;-63
2021/05/28 03:25:46;;;;;;;8.15;4.82;;;22.30;44.50;;;;;;6177108;28;82532;-61
2021/05/28 03:28:46;;;;;;;7.40;4.32;;;22.30;44.70;;;;;;6175325;28;80624;-62
2021/05/28 03:31:47;;;;;;;12.82;4.82;;;22.30;44.40;;;;;;6156633;28;80219;-64
2021/05/28 03:34:47;;;;;;;9.80;5.05;;;22.30;44.10;;;;;;6160700;28;80894;-66
2021/05/28 03:37:48;;;;;;;6.80;4.18;;;22.30;44.30;;;;;;6155471;28;81249;-65
2021/05/28 03:40:48;;;;;;;10.55;5.63;;;22.30;44.30;;;;;;6160414;28;80599;-66
2021/05/28 03:43:49;;;;;;;8.13;4.13;;;22.30;44.20;;;;;;6174177;28;80252;-65
2021/05/28 03:46:49;;;;;;;7.80;4.70;;;22.30;45.50;;;;;;6173957;28;81649;-63
2021/05/28 03:49:50;;;;;;;8.77;5.10;;;22.30;44.90;;;;;;6179783;28;80840;-62
2021/05/28 03:52:50;;;;;;;9.13;4.95;;;22.30;44.60;;;;;;6173849;28;80302;-63
2021/05/28 03:55:51;;;;;;;9.63;4.60;;;22.30;44.60;;;;;;6155129;28;81032;-65
2021/05/28 03:58:52;;;;;;;7.38;4.43;;;22.30;44.80;;;;;;6160439;28;80311;-65
2021/05/28 04:01:52;;;;;;;8.68;4.68;;;22.30;45.10;;;;;;6172389;28;80388;-65
2021/05/28 04:04:53;;;;;;;11.13;5.30;;;22.30;44.80;;;;;;6158959;28;80502;-65
2021/05/28 04:07:53;;;;;;;7.30;4.45;;;22.30;44.40;;;;;;6164298;28;82846;-66
2021/05/28 04:10:54;;;;;;;14.95;5.40;;;22.30;44.70;;;;;;6177363;28;80423;-63
2021/05/28 04:13:54;;;;;;;6.97;4.32;;;22.30;44.80;;;;;;6154238;28;80314;-66
2021/05/28 04:16:55;;;;;;;16.90;5.65;;;22.30;45.50;;;;;;6157255;28;81776;-66
2021/05/28 04:19:55;;;;;;;9.65;4.70;;;22.30;45.20;;;;;;6158556;28;86580;-66
2021/05/28 04:22:56;;;;;;;11.70;5.03;;;22.30;45.00;;;;;;6165309;28;80394;-65
2021/05/28 04:25:56;;;;;;;8.02;4.72;;;22.30;45.00;;;;;;6197295;28;83124;-66
2021/05/28 04:28:57;;;;;;;13.10;4.20;;;22.30;45.80;;;;;;6183881;28;80378;-65
2021/05/28 04:31:57;;;;;;;9.13;4.70;;;22.30;45.50;;;;;;6182362;28;80491;-66
2021/05/28 04:34:58;;;;;;;7.85;4.28;;;22.30;46.00;;;;;;6183076;28;81019;-66
2021/05/28 04:37:59;;;;;;;7.28;4.32;;;22.30;46.20;;;;;;6182685;28;80828;-66
2021/05/28 04:40:59;;;;;;;8.75;5.18;;;22.30;46.20;;;;;;6182908;28;80441;-66
2021/05/28 04:44:00;;;;;;;7.55;4.57;;;22.30;46.10;;;;;;6176260;28;81479;-67
2021/05/28 04:47:00;;;;;;;7.15;4.43;;;22.30;46.00;;;;;;6160951;28;80458;-66
2021/05/28 04:50:01;;;;;;;9.35;4.80;;;22.40;46.10;;;;;;6182466;28;82957;-65
2021/05/28 04:53:01;;;;;;;9.02;4.68;;;22.40;46.10;;;;;;6181263;28;80357;-67
2021/05/28 04:56:03;;;;;;;13.10;4.53;;;22.40;46.10;;;;;;6182331;28;81108;-66
2021/05/28 04:59:03;;;;;;;7.60;4.30;;;22.40;46.10;;;;;;6179484;28;81326;-66
2021/05/28 05:02:06;;;;;;;9.18;4.55;;;22.40;46.10;;;;;;6182321;28;80372;-65
2021/05/28 05:05:06;;;;;;;12.95;4.50;;;22.40;46.20;;;;;;6181655;28;80481;-64
2021/05/28 05:08:07;;;;;;;8.60;5.03;;;22.40;46.20;;;;;;6174619;28;80324;-64
2021/05/28 05:11:07;;;;;;;10.32;4.60;;;22.50;46.40;;;;;;6164845;28;80122;-63
2021/05/28 05:14:08;;;;;;;11.65;4.18;;;22.50;46.20;;;;;;6169112;28;80529;-62
2021/05/28 05:17:08;;;;;;;7.55;4.10;;;22.50;46.10;;;;;;6157895;28;80243;-63
2021/05/28 05:20:09;;;;;;;9.05;4.50;;;22.50;46.00;;;;;;6149069;28;80497;-62
2021/05/28 05:23:09;;;;;;;9.13;3.92;;;22.50;45.90;;;;;;6163397;28;80549;-62
2021/05/28 05:26:10;;;;;;;9.43;4.88;;;22.40;45.90;;;;;;6180606;28;81706;-61
2021/05/28 05:29:10;;;;;;;8.48;4.60;;;22.40;45.80;;;;;;6171243;28;80368;-63
2021/05/28 05:32:11;;;;;;;11.48;4.28;;;22.40;45.80;;;;;;6161082;28;83713;-64
2021/05/28 05:35:11;;;;;;;11.27;4.32;;;22.40;45.80;;;;;;6171132;28;81611;-64
2021/05/28 05:38:12;;;;;;;8.45;4.57;;;22.40;45.80;;;;;;6172834;28;80441;-64
2021/05/28 05:41:12;;;;;;;13.75;4.60;;;22.40;45.60;;;;;;6164318;28;80464;-63
2021/05/28 05:44:13;;;;;;;7.68;4.22;;;22.50;45.90;;;;;;6169470;28;80950;-66
2021/05/28 05:47:13;;;;;;;10.00;4.10;;;22.40;46.00;;;;;;6154894;28;80648;-64
2021/05/28 05:50:15;;;;;;;6.32;3.90;;;22.50;46.00;;;;;;6157158;28;81267;-63
2021/05/28 05:53:16;;;;;;;13.52;4.00;;;22.50;45.80;;;;;;6154224;28;83591;-62
2021/05/28 05:56:16;;;;;;;11.25;4.05;;;22.50;45.80;;;;;;6165582;28;80395;-63
2021/05/28 05:59:17;;;;;;;10.18;3.88;;;22.50;46.20;;;;;;6172747;28;81192;-63
2021/05/28 06:02:17;;;;;;;10.82;4.00;;;22.50;46.10;;;;;;6156815;28;81468;-63
2021/05/28 06:05:18;;;;;;;5.85;3.42;;;22.50;45.80;;;;;;6157593;28;81171;-63
2021/05/28 06:08:19;;;;;;;8.70;3.60;;;22.50;46.00;;;;;;6165959;28;80810;-63
2021/05/28 06:11:19;;;;;;;8.27;4.20;;;22.50;45.90;;;;;;6166953;28;80625;-62
2021/05/28 06:14:20;;;;;;;11.65;4.15;;;22.50;45.50;;;;;;6154378;28;80617;-63
2021/05/28 06:17:20;;;;;;;7.80;4.35;;;22.50;45.60;;;;;;6163834;28;83003;-63
2021/05/28 06:20:21;;;;;;;9.07;3.67;;;22.50;45.60;;;;;;6171466;28;80890;-63
2021/05/28 06:23:22;;;;;;;8.70;3.95;;;22.50;45.20;;;;;;6165169;28;80449;-63
2021/05/28 06:26:22;;;;;;;7.85;3.70;;;22.50;45.60;;;;;;6171494;28;81236;-63
2021/05/28 06:29:23;;;;;;;5.95;3.40;;;22.50;45.20;;;;;;6151438;28;83663;-63
2021/05/28 06:32:23;;;;;;;6.20;3.33;;;22.40;45.00;;;;;;6151459;28;80625;-64
2021/05/28 06:35:24;;;;;;;7.85;4.00;;;22.50;45.40;;;;;;6151639;28;80302;-64
2021/05/28 06:38:24;;;;;;;6.32;3.63;;;22.50;44.90;;;;;;6154439;28;80290;-63
2021/05/28 06:41:25;;;;;;;4.57;3.13;;;22.50;45.00;;;;;;6148759;28;81881;-63
2021/05/28 06:44:25;;;;;;;7.72;3.63;;;22.60;45.00;;;;;;6153796;28;81758;-63
2021/05/28 06:47:26;;;;;;;4.75;3.25;;;22.60;45.00;;;;;;6152370;28;80132;-64
2021/05/28 06:50:30;;;;;;;6.35;3.00;;;22.60;45.00;;;;;;6153045;28;80406;-64
2021/05/28 06:53:31;;;;;;;5.35;3.17;;;22.60;45.00;;;;;;6165746;28;81295;-63
2021/05/28 06:56:32;;;;;;;5.90;3.30;;;22.60;45.10;;;;;;6163991;28;80070;-63
2021/05/28 06:59:32;;;;;;;5.07;2.70;;;22.60;45.10;;;;;;6157745;28;81295;-63
2021/05/28 07:02:33;;;;;;;6.05;2.85;;;22.60;45.20;;;;;;6156522;28;80123;-63
2021/05/28 07:05:33;;;;;;;5.43;3.17;;;22.60;45.20;;;;;;6152033;28;81333;-63
2021/05/28 07:08:34;;;;;;;4.97;3.20;;;22.60;45.10;;;;;;6146222;28;79982;-64
2021/05/28 07:11:34;;;;;;;4.88;2.78;;;22.60;45.20;;;;;;6152231;28;81040;-64
2021/05/28 07:14:35;;;;;;;3.88;2.83;;;22.60;45.30;;;;;;6177684;28;83147;-63
2021/05/28 07:17:35;;;;;;;5.72;3.35;;;22.60;45.10;;;;;;6164852;28;81423;-64
2021/05/28 07:20:36;;;;;;;9.23;2.97;;;22.60;44.90;;;;;;6155306;28;81942;-64
2021/05/28 07:23:37;;;;;;;4.20;2.53;;;22.60;44.90;;;;;;6152784;28;80691;-64
2021/05/28 07:26:37;;;;;;;5.25;3.03;;;22.60;44.90;;;;;;6153006;28;81542;-64
2021/05/28 07:29:38;;;;;;;6.35;2.80;;;22.60;44.90;;;;;;6152257;28;80841;-63
2021/05/28 07:32:38;;;;;;;15.07;3.15;;;22.60;44.90;;;;;;6149419;28;80842;-63
2021/05/28 07:35:39;;;;;;;5.53;2.70;;;22.60;45.00;;;;;;6159759;28;80231;-63
2021/05/28 07:38:39;;;;;;;5.68;3.22;;;22.70;45.20;;;;;;6164533;28;80338;-63
2021/05/28 07:41:40;;;;;;;6.50;2.83;;;22.70;45.10;;;;;;6166021;28;80528;-63
2021/05/28 07:44:40;;;;;;;3.20;2.42;;;22.60;45.40;;;;;;6165451;28;80627;-63
2021/05/28 07:47:41;;;;;;;4.10;2.55;;;22.60;45.30;;;;;;6154212;28;80831;-63
2021/05/28 07:50:45;;;;;;;3.30;2.60;;;22.70;45.40;;;;;;6157160;28;80043;-64
2021/05/28 07:53:45;;;;;;;4.38;2.80;;;22.70;45.50;;;;;;6152620;28;81290;-63
2021/05/28 07:56:46;;;;;;;4.60;2.70;;;22.70;45.30;;;;;;6167573;28;80238;-64
2021/05/28 07:59:46;;;;;;;5.03;2.67;;;22.70;45.30;;;;;;6165952;28;81695;-65
2021/05/28 08:02:47;;;;;;;8.82;2.63;;;22.70;45.20;;;;;;6156205;28;80636;-64
2021/05/28 08:05:50;;;;;;;3.63;2.15;;;22.70;45.20;;;;;;6155910;28;80769;-64
2021/05/28 08:08:51;;;;;;;9.68;3.08;;;22.70;45.00;;;;;;6154595;28;82651;-64
2021/05/28 08:11:51;;;;;;;18.30;2.85;;;22.70;44.90;;;;;;6146640;28;81098;-63
2021/05/28 08:14:52;;;;;;;9.30;2.63;;;22.70;44.80;;;;;;6149346;28;85521;-64
2021/05/28 08:17:52;;;;;;;6.72;2.55;;;22.70;44.60;;;;;;6152542;28;82349;-62
2021/05/28 08:20:53;;;;;;;9.55;2.67;;;22.70;44.40;;;;;;6154266;28;80403;-65
2021/05/28 08:23:53;;;;;;;5.60;2.45;;;22.70;44.40;;;;;;6169510;28;82683;-65
2021/05/28 08:26:54;;;;;;;5.70;2.42;;;22.70;44.10;;;;;;6189723;28;81615;-66
2021/05/28 08:29:54;;;;;;;5.57;2.28;;;22.80;43.90;;;;;;6178252;28;81814;-65
2021/05/28 08:32:55;;;;;;;4.55;2.45;;;22.80;43.90;;;;;;6168881;27;80640;-64
2021/05/28 08:35:55;;;;;;;5.72;2.33;;;22.80;43.70;;;;;;6152955;28;80624;-65
2021/05/28 08:38:56;;;;;;;3.50;2.40;;;22.80;43.50;;;;;;6179867;28;83729;-65
2021/05/28 08:41:56;;;;;;;3.00;2.13;;;22.70;43.50;;;;;;6150410;28;80915;-64
2021/05/28 08:44:57;;;;;;;3.72;2.35;;;22.80;43.20;;;;;;6156100;28;81495;-67
2021/05/28 08:47:57;;;;;;;3.75;2.40;;;22.80;42.80;;;;;;6166837;28;80217;-64
2021/05/28 08:50:58;;;;;;;8.48;2.15;;;22.80;42.70;;;;;;6165141;28;80914;-64
2021/05/28 08:53:59;;;;;;;5.13;2.25;;;22.80;42.00;;;;;;6155888;28;80852;-64
2021/05/28 08:56:59;;;;;;;3.25;1.80;;;22.80;41.50;;;;;;6143238;28;83467;-63
2021/05/28 09:00:00;;;;;;;5.72;2.20;;;22.80;41.30;;;;;;6155081;28;80576;-64
2021/05/28 09:03:00;;;;;;;3.72;2.15;;;22.80;41.30;;;;;;6167973;28;81439;-64
2021/05/28 09:06:01;;;;;;;5.85;2.22;;;22.70;41.20;;;;;;6166959;28;82867;-64
2021/05/28 09:09:01;;;;;;;3.20;1.90;;;22.80;41.10;;;;;;6150403;27;80352;-65
2021/05/28 09:12:03;;;;;;;4.50;2.40;;;22.80;40.90;;;;;;6146979;28;80157;-65
2021/05/28 09:15:04;;;;;;;5.82;2.53;;;22.80;40.90;;;;;;6154783;27;80494;-65
2021/05/28 09:18:04;;;;;;;3.22;2.33;;;22.80;40.90;;;;;;6151609;28;80518;-65
2021/05/28 09:21:05;;;;;;;4.20;2.17;;;22.80;40.80;;;;;;6154071;28;80461;-65
2021/05/28 09:24:06;;;;;;;5.57;2.08;;;22.80;40.60;;;;;;6152068;28;81498;-66
2021/05/28 09:27:06;;;;;;;3.22;2.03;;;22.80;40.50;;;;;;6150359;28;80237;-66
2021/05/28 09:30:07;;;;;;;3.13;2.45;;;22.80;40.40;;;;;;6151993;28;80410;-65
2021/05/28 09:33:07;;;;;;;4.10;2.72;;;22.80;40.30;;;;;;6167328;28;83247;-66
2021/05/28 09:36:09;;;;;;;3.42;2.38;;;22.70;40.30;;;;;;6167086;28;80609;-64
2021/05/28 09:39:09;;;;;;;3.42;2.33;;;22.80;40.20;;;;;;6152980;28;80547;-64
2021/05/28 09:42:10;;;;;;;5.68;2.50;;;22.80;40.70;;;;;;6170662;28;80977;-64
2021/05/28 09:45:10;;;;;;;3.38;2.10;;;22.80;42.20;;;;;;6160642;28;80733;-64
2021/05/28 09:48:11;;;;;;;6.13;2.50;;;22.80;42.60;;;;;;6167309;28;87700;-65
2021/05/28 09:51:11;;;;;;;5.03;2.42;;;22.80;43.30;;;;;;6175201;28;80728;-64
2021/05/28 09:54:12;;;;;;;3.67;2.33;;;22.80;44.10;;;;;;6162817;28;80063;-65
2021/05/28 09:57:12;;;;;;;2.55;2.28;;;22.80;44.40;;;;;;6144384;27;81416;-64
2021/05/28 10:00:13;;;;;;;3.40;1.90;;;22.80;45.20;;;;;;6149731;28;80310;-66
2021/05/28 10:03:15;;;;;;;6.18;2.38;;;22.80;45.60;;;;;;6151618;28;80658;-64
2021/05/28 10:06:16;;;;;;;3.17;2.30;;;22.80;45.50;;;;;;6169117;28;80752;-65
2021/05/28 10:09:17;;;;;;;4.20;2.78;;;22.80;45.60;;;;;;6158272;28;82523;-66
2021/05/28 10:12:17;;;;;;;2.83;2.38;;;22.80;46.20;;;;;;6179979;28;83073;-65
2021/05/28 10:15:17;;;;;;;3.03;2.05;;;22.80;46.40;;;;;;6161066;28;80979;-65
2021/05/28 10:18:18;;;;;;;3.50;2.38;;;22.70;46.90;;;;;;6153186;28;81338;-65
2021/05/28 10:21:19;;;;;;;2.72;2.00;;;22.80;47.60;;;;;;6153642;28;81428;-66
2021/05/28 10:24:19;;;;;;;3.70;2.50;;;22.80;47.70;;;;;;6167839;28;80526;-65
2021/05/28 10:27:20;;;;;;;4.47;2.20;;;22.80;48.10;;;;;;6162360;28;81353;-64
2021/05/28 10:30:21;;;;;;;5.47;2.53;;;22.80;47.80;;;;;;6151195;28;80710;-64
2021/05/28 10:33:22;;;;;;;4.72;2.38;;;22.80;48.20;;;;;;6167830;28;81490;-64
2021/05/28 10:36:23;;;;;;;3.15;2.25;;;22.70;49.10;;;;;;6171788;28;80162;-64
2021/05/28 10:39:23;;;;;;;5.18;2.50;;;22.80;49.30;;;;;;6173821;28;81413;-64
2021/05/28 10:42:24;;;;;;;4.13;2.38;;;22.80;49.60;;;;;;6159484;28;80735;-64
2021/05/28 10:45:24;;;;;;;4.72;2.92;;;22.70;48.80;;;;;;6155545;28;80630;-66
2021/05/28 10:48:25;;;;;;;11.77;3.15;;;22.70;48.70;;;;;;6172677;28;83143;-65
2021/05/28 10:51:25;;;;;;;4.35;2.63;;;22.70;48.00;;;;;;6159396;28;81638;-65
2021/05/28 10:54:26;;;;;;;5.75;2.28;;;22.70;48.20;;;;;;6166297;28;81692;-66
2021/05/28 10:57:26;;;;;;;5.25;3.30;;;22.70;48.90;;;;;;6171094;28;80364;-66
2021/05/28 11:00:29;;;;;;;6.18;3.10;;;22.70;49.40;;;;;;6154272;28;80184;-66
2021/05/28 11:03:29;;;;;;;3.75;2.30;;;22.70;50.30;;;;;;6154307;28;81312;-66
2021/05/28 11:06:30;;;;;;;5.78;2.67;;;22.70;50.80;;;;;;6149204;28;81460;-66
2021/05/28 11:09:30;;;;;;;13.88;3.70;;;22.70;50.90;;;;;;6170070;28;82148;-66
2021/05/28 11:12:31;;;;;;;12.68;3.92;;;22.70;51.60;;;;;;6183286;28;88985;-66
2021/05/28 11:15:31;;;;;;;13.77;4.93;;;22.80;51.50;;;;;;6159392;28;80745;-66
2021/05/28 11:18:32;;;;;;;20.05;5.32;;;22.80;51.50;;;;;;6177826;28;80410;-66
2021/05/28 11:21:33;;;;;;;21.33;9.25;;;22.70;52.20;;;;;;6183744;27;83382;-65
2021/05/28 11:24:33;;;;;;;30.23;12.02;;;22.80;51.70;;;;;;6184132;28;80718;-66
2021/05/28 11:27:34;;;;;;;33.65;16.10;;;22.70;51.60;;;;;;6172677;28;83410;-66
2021/05/28 11:30:34;;;;;;;33.05;17.27;;;22.70;51.70;;;;;;6173952;28;84038;-66
2021/05/28 11:33:35;;;;;;;49.97;27.98;;;22.70;51.70;;;;;;6155526;28;83854;-65
2021/05/28 11:36:39;;;;;;;61.65;39.53;;;22.70;52.50;;;;;;6166472;28;83400;-65
2021/05/28 11:39:40;;;;;;;73.07;49.42;;;22.80;51.50;;;;;;6178947;27;83493;-66
2021/05/28 11:42:41;;;;;;;81.00;52.97;;;22.70;51.40;;;;;;6176801;28;83209;-65
2021/05/28 11:45:41;;;;;;;86.53;56.05;;;22.80;51.00;;;;;;6190366;28;84088;-67
2021/05/28 11:48:42;;;;;;;77.78;51.35;;;22.70;50.30;;;;;;6154339;28;83401;-66
2021/05/28 11:51:42;;;;;;;68.65;45.80;;;22.70;50.70;;;;;;6157011;28;83819;-65
2021/05/28 11:54:43;;;;;;;70.57;41.30;;;22.80;49.90;;;;;;6156107;28;83541;-64
2021/05/28 11:57:43;;;;;;;56.97;36.13;;;22.70;49.00;;;;;;6173575;28;83556;-64
2021/05/28 12:00:44;;;;;;;52.85;34.95;;;22.70;47.80;;;;;;6174052;27;83257;-64
2021/05/28 12:03:44;;;;;;;46.63;30.60;;;22.70;46.50;;;;;;6173808;28;82919;-64
2021/05/28 12:06:45;;;;;;;46.95;29.77;;;22.80;45.90;;;;;;6176469;27;83134;-64
2021/05/28 12:09:45;;;;;;;34.05;23.70;;;22.80;45.10;;;;;;6180738;28;85661;-65
2021/05/28 12:12:46;;;;;;;33.45;21.08;;;22.80;44.40;;;;;;6148834;28;88821;-65
2021/05/28 12:15:46;;;;;;;28.42;19.20;;;22.80;43.90;;;;;;6168544;28;83278;-65
2021/05/28 12:18:47;;;;;;;27.15;17.40;;;22.80;43.60;;;;;;6173289;28;82993;-65
2021/05/28 12:21:47;;;;;;;21.13;14.35;;;22.80;43.70;;;;;;6157737;28;83185;-64
2021/05/28 12:24:48;;;;;;;20.15;12.38;;;22.80;43.00;;;;;;6174932;28;83197;-64
2021/05/28 12:27:48;;;;;;;14.50;10.23;;;22.80;42.40;;;;;;6178742;28;86107;-64
2021/05/28 12:30:49;;;;;;;11.10;7.97;;;22.70;42.10;;;;;;6157042;28;83284;-64
2021/05/28 12:33:50;;;;;;;10.27;7.97;;;22.70;41.50;;;;;;6179629;28;83271;-64
2021/05/28 12:36:51;;;;;;;12.85;7.30;;;22.70;41.60;;;;;;6181786;28;82223;-64
2021/05/28 12:39:51;;;;;;;15.95;7.05;;;22.70;41.10;;;;;;6156162;28;80415;-63
2021/05/28 12:42:51;;;;;;;10.32;6.22;;;22.70;41.10;;;;;;6153159;28;80799;-64
2021/05/28 12:45:52;;;;;;;7.28;5.45;;;22.70;40.70;;;;;;6179736;28;81087;-63
2021/05/28 12:48:53;;;;;;;7.05;5.03;;;22.70;40.80;;;;;;6182311;28;81688;-63
2021/05/28 12:51:53;;;;;;;8.05;4.90;;;22.70;41.10;;;;;;6181985;28;81017;-64
2021/05/28 12:54:54;;;;;;;6.70;4.43;;;22.70;40.80;;;;;;6177480;28;80546;-63
2021/05/28 12:57:54;;;;;;;8.13;4.45;;;22.70;40.70;;;;;;6150583;28;81376;-65
2021/05/28 13:00:55;;;;;;;9.02;3.55;;;22.70;40.90;;;;;;6175251;28;81231;-64
2021/05/28 13:03:55;;;;;;;10.40;3.88;;;22.70;40.60;;;;;;6153534;28;80633;-63
2021/05/28 13:06:56;;;;;;;5.05;3.28;;;22.70;40.80;;;;;;6155175;28;81212;-64
2021/05/28 13:09:56;;;;;;;4.15;3.20;;;22.70;40.90;;;;;;6179099;28;83311;-64
2021/05/28 13:12:57;;;;;;;3.45;2.70;;;22.70;41.20;;;;;;6152592;28;80760;-64
2021/05/28 13:15:57;;;;;;;3.45;2.30;;;22.70;41.10;;;;;;6147586;28;80567;-65
2021/05/28 13:18:57;;;;;;;7.57;2.58;;;22.80;41.00;;;;;;6169840;28;81126;-66
2021/05/28 13:21:58;;;;;;;4.32;2.38;;;22.80;41.50;;;;;;6153837;28;80260;-66
2021/05/28 13:24:59;;;;;;;6.15;2.55;;;22.80;41.00;;;;;;6177616;28;80816;-67
2021/05/28 13:27:59;;;;;;;4.22;2.40;;;22.80;41.00;;;;;;6154590;28;80347;-67
2021/05/28 13:31:00;;;;;;;3.38;2.58;;;22.80;41.00;;;;;;6157206;28;81594;-67
2021/05/28 13:34:00;;;;;;;2.72;2.03;;;22.80;41.00;;;;;;6177037;28;82127;-67
2021/05/28 13:37:01;;;;;;;2.40;1.80;;;22.80;41.10;;;;;;6175856;28;81792;-67
2021/05/28 13:40:01;;;;;;;2.92;1.90;;;22.80;41.00;;;;;;6181464;27;81190;-66
2021/05/28 13:43:02;;;;;;;4.40;2.50;;;22.80;40.60;;;;;;6182221;28;80795;-66
2021/05/28 13:46:04;;;;;;;97.65;33.97;;;22.80;40.90;;;;;;6158866;28;81290;-66
2021/05/28 13:49:06;;;;;;;151.63;51.15;;;22.80;40.20;;;;;;6176749;28;82809;-66
2021/05/28 13:52:06;;;;;;;198.45;67.47;;;22.80;40.40;;;;;;6177589;28;83065;-65
2021/05/28 13:55:07;;;;;;;226.85;78.13;;;22.80;41.10;;;;;;6177205;28;83357;-66
2021/05/28 13:58:08;;;;;;;196.75;69.93;;;22.80;40.20;;;;;;6153477;28;83216;-68
2021/05/28 14:01:08;;;;;;;161.50;58.50;;;22.80;40.40;;;;;;6154125;28;85571;-67
2021/05/28 14:04:09;;;;;;;142.50;49.90;;;22.80;40.70;;;;;;6174388;28;83188;-66
2021/05/28 14:07:09;;;;;;;126.05;43.78;;;22.80;40.20;;;;;;6147453;28;86046;-64
2021/05/28 14:10:10;;;;;;;97.32;36.00;;;22.80;40.30;;;;;;6153404;28;84078;-65
2021/05/28 14:13:10;;;;;;;97.70;33.03;;;22.80;40.20;;;;;;6153942;28;82968;-65
2021/05/28 14:16:12;;;;;;;72.65;27.38;;;22.80;40.60;;;;;;6178050;28;87150;-64
2021/05/28 14:19:13;;;;;;;64.28;25.13;;;22.80;40.60;;;;;;6150851;28;89971;-65
2021/05/28 14:22:13;;;;;;;56.67;22.10;;;22.80;41.00;;;;;;6154272;28;84862;-66
2021/05/28 14:25:14;;;;;;;61.47;22.10;;;22.80;40.70;;;;;;6177712;28;85788;-65
2021/05/28 14:28:14;;;;;;;56.58;20.15;;;22.80;40.80;;;;;;6176523;28;84335;-62
2021/05/28 14:31:16;;;;;;;53.67;19.73;;;22.80;41.30;;;;;;6176519;28;83250;-65
2021/05/28 14:34:16;;;;;;;55.35;18.73;;;22.80;41.10;;;;;;6146669;28;83937;-64
2021/05/28 14:37:17;;;;;;;42.83;15.77;;;22.80;40.90;;;;;;6172664;28;83235;-64
2021/05/28 14:40:17;;;;;;;49.60;16.40;;;22.80;41.00;;;;;;6140171;28;83147;-66
2021/05/28 14:43:18;;;;;;;40.67;14.38;;;22.80;41.00;;;;;;6191744;28;85903;-65
2021/05/28 14:46:18;;;;;;;35.05;12.82;;;22.80;40.90;;;;;;6175893;28;83345;-66
2021/05/28 14:49:19;;;;;;;30.63;12.95;;;22.80;40.80;;;;;;6191522;28;83928;-65
2021/05/28 14:52:20;;;;;;;28.95;10.85;;;22.80;40.80;;;;;;6148548;28;83429;-65
2021/05/28 14:55:20;;;;;;;30.85;10.75;;;22.80;40.70;;;;;;6152275;28;82883;-64
2021/05/28 14:58:21;;;;;;;26.08;9.93;;;22.80;41.60;;;;;;6153538;28;86811;-65
2021/05/28 15:01:21;;;;;;;24.33;8.93;;;22.80;40.80;;;;;;6181189;28;83109;-65
2021/05/28 15:04:22;;;;;;;27.52;9.65;;;22.80;40.80;;;;;;6179820;28;80469;-65
2021/05/28 15:07:24;;;;;;;22.42;8.90;;;22.80;40.80;;;;;;6180779;28;80389;-65
2021/05/28 15:10:25;;;;;;;18.23;7.38;;;22.80;40.90;;;;;;6176677;28;80514;-65
2021/05/28 15:13:25;;;;;;;16.42;7.05;;;22.80;40.80;;;;;;6154670;28;80586;-65
2021/05/28 15:16:26;;;;;;;15.95;6.68;;;22.80;40.80;;;;;;6156370;28;80552;-65
2021/05/28 15:19:28;;;;;;;12.05;6.18;;;22.80;40.70;;;;;;6180518;28;80862;-65
2021/05/28 15:22:28;;;;;;;13.25;5.95;;;22.80;40.70;;;;;;6175351;28;80687;-64
2021/05/28 15:25:29;;;;;;;9.35;4.53;;;22.80;40.80;;;;;;6148726;28;81408;-66
2021/05/28 15:28:30;;;;;;;10.32;5.18;;;22.80;41.10;;;;;;6157450;28;80771;-65
2021/05/28 15:31:30;;;;;;;7.55;4.13;;;22.70;41.10;;;;;;6176409;28;81294;-65